sensor_id;sensor_type;location;lat;lon;timestamp;pressure;altitude;pressure_sealevel;temperature;humidity
76448;BME280;65284;51.040;13.722;2024-01-15T00:01:30;98010.34;;;1.14;84.75
76448;BME280;65284;51.040;13.722;2024-01-15T00:03:56;98011.97;;;1.15;84.83
76448;BME280;65284;51.040;13.722;2024-01-15T00:06:23;98005.41;;;1.11;85.37
76448;BME280;65284;51.040;13.722;2024-01-15T00:08:50;98015.19;;;1.09;85.40
76448;BME280;65284;51.040;13.722;2024-01-15T00:11:16;98003.09;;;1.08;85.95
76448;BME280;65284;51.040;13.722;2024-01-15T00:13:43;98009.63;;;1.04;85.60
76448;BME280;65284;51.040;13.722;2024-01-15T00:16:10;98027.22;;;1.02;85.86
76448;BME280;65284;51.040;13.722;2024-01-15T00:18:36;98007.81;;;1.04;85.58
76448;BME280;65284;51.040;13.722;2024-01-15T00:21:03;98009.75;;;1.02;86.07
76448;BME280;65284;51.040;13.722;2024-01-15T00:23:30;98002.59;;;1.04;85.90
76448;BME280;65284;51.040;13.722;2024-01-15T00:25:56;97996.16;;;0.99;86.32
76448;BME280;65284;51.040;13.722;2024-01-15T00:28:23;98011.03;;;0.98;86.08
76448;BME280;65284;51.040;13.722;2024-01-15T00:30:49;98011.25;;;1.05;86.22
76448;BME280;65284;51.040;13.722;2024-01-15T00:33:16;98012.66;;;0.99;86.44
76448;BME280;65284;51.040;13.722;2024-01-15T00:35:43;98016.91;;;1.00;86.68
76448;BME280;65284;51.040;13.722;2024-01-15T00:38:09;98002.72;;;1.03;86.78
76448;BME280;65284;51.040;13.722;2024-01-15T00:40:35;98007.59;;;0.98;86.56
76448;BME280;65284;51.040;13.722;2024-01-15T00:43:02;98002.00;;;0.93;86.85
76448;BME280;65284;51.040;13.722;2024-01-15T00:45:28;98012.44;;;0.93;87.11
76448;BME280;65284;51.040;13.722;2024-01-15T00:47:55;98009.44;;;0.87;87.01
76448;BME280;65284;51.040;13.722;2024-01-15T00:50:23;97988.53;;;0.87;87.47
76448;BME280;65284;51.040;13.722;2024-01-15T00:52:49;97991.84;;;0.89;87.19
76448;BME280;65284;51.040;13.722;2024-01-15T00:55:15;97978.91;;;0.88;86.68
76448;BME280;65284;51.040;13.722;2024-01-15T00:57:42;97980.41;;;0.90;86.91
76448;BME280;65284;51.040;13.722;2024-01-15T01:00:09;97979.72;;;0.88;86.70
76448;BME280;65284;51.040;13.722;2024-01-15T01:02:35;97970.13;;;0.89;86.02
76448;BME280;65284;51.040;13.722;2024-01-15T01:05:02;97969.94;;;0.90;85.95
76448;BME280;65284;51.040;13.722;2024-01-15T01:07:29;97963.75;;;0.91;85.70
76448;BME280;65284;51.040;13.722;2024-01-15T01:09:56;97948.06;;;0.91;85.72
76448;BME280;65284;51.040;13.722;2024-01-15T01:12:22;97974.50;;;0.88;85.87
76448;BME280;65284;51.040;13.722;2024-01-15T01:14:49;97967.94;;;0.84;85.82
76448;BME280;65284;51.040;13.722;2024-01-15T01:17:15;97969.56;;;0.85;85.89
76448;BME280;65284;51.040;13.722;2024-01-15T01:19:42;97956.97;;;0.81;86.27
76448;BME280;65284;51.040;13.722;2024-01-15T01:22:09;97947.03;;;0.84;85.88
76448;BME280;65284;51.040;13.722;2024-01-15T01:24:35;97950.31;;;0.86;85.44
76448;BME280;65284;51.040;13.722;2024-01-15T01:27:02;97943.75;;;0.82;85.78
76448;BME280;65284;51.040;13.722;2024-01-15T01:29:28;97933.06;;;0.76;85.95
76448;BME280;65284;51.040;13.722;2024-01-15T01:31:55;97939.13;;;0.76;86.17
76448;BME280;65284;51.040;13.722;2024-01-15T01:34:22;97937.19;;;0.78;85.81
76448;BME280;65284;51.040;13.722;2024-01-15T01:36:49;97951.22;;;0.77;85.80
76448;BME280;65284;51.040;13.722;2024-01-15T01:39:16;97949.06;;;0.73;85.74
76448;BME280;65284;51.040;13.722;2024-01-15T01:41:42;97916.88;;;0.72;85.70
76448;BME280;65284;51.040;13.722;2024-01-15T01:44:09;97915.53;;;0.68;85.71
76448;BME280;65284;51.040;13.722;2024-01-15T01:46:36;97909.50;;;0.67;86.05
76448;BME280;65284;51.040;13.722;2024-01-15T01:49:07;97902.13;;;0.63;85.99
76448;BME280;65284;51.040;13.722;2024-01-15T01:51:35;97910.78;;;0.63;85.58
76448;BME280;65284;51.040;13.722;2024-01-15T01:54:04;97938.38;;;0.66;85.48
76448;BME280;65284;51.040;13.722;2024-01-15T01:56:31;97933.97;;;0.66;85.33
76448;BME280;65284;51.040;13.722;2024-01-15T01:58:58;97922.41;;;0.69;84.96
76448;BME280;65284;51.040;13.722;2024-01-15T02:01:25;97934.50;;;0.70;84.56
76448;BME280;65284;51.040;13.722;2024-01-15T02:03:51;97917.03;;;0.71;84.55
76448;BME280;65284;51.040;13.722;2024-01-15T02:06:18;97920.81;;;0.76;84.51
76448;BME280;65284;51.040;13.722;2024-01-15T02:08:45;97920.19;;;0.74;84.57
76448;BME280;65284;51.040;13.722;2024-01-15T02:11:11;97916.88;;;0.72;84.51
76448;BME280;65284;51.040;13.722;2024-01-15T02:13:38;97914.97;;;0.74;84.09
76448;BME280;65284;51.040;13.722;2024-01-15T02:16:05;97898.59;;;0.72;84.11
76448;BME280;65284;51.040;13.722;2024-01-15T02:18:46;97906.44;;;0.72;84.26
76448;BME280;65284;51.040;13.722;2024-01-15T02:21:13;97920.09;;;0.66;84.29
76448;BME280;65284;51.040;13.722;2024-01-15T02:23:39;97907.34;;;0.63;84.81
76448;BME280;65284;51.040;13.722;2024-01-15T02:26:06;97899.66;;;0.61;84.69
76448;BME280;65284;51.040;13.722;2024-01-15T02:28:34;97897.19;;;0.60;83.89
76448;BME280;65284;51.040;13.722;2024-01-15T02:31:00;97899.13;;;0.58;84.58
76448;BME280;65284;51.040;13.722;2024-01-15T02:33:27;97896.91;;;0.63;84.64
76448;BME280;65284;51.040;13.722;2024-01-15T02:35:53;97894.59;;;0.60;84.92
76448;BME280;65284;51.040;13.722;2024-01-15T02:38:20;97894.72;;;0.58;85.42
76448;BME280;65284;51.040;13.722;2024-01-15T02:40:46;97916.44;;;0.59;84.81
76448;BME280;65284;51.040;13.722;2024-01-15T02:43:13;97886.59;;;0.61;84.47
76448;BME280;65284;51.040;13.722;2024-01-15T02:45:40;97876.59;;;0.57;84.61
76448;BME280;65284;51.040;13.722;2024-01-15T02:48:06;97884.28;;;0.58;84.55
76448;BME280;65284;51.040;13.722;2024-01-15T02:50:33;97887.34;;;0.54;84.48
76448;BME280;65284;51.040;13.722;2024-01-15T02:52:59;97907.56;;;0.52;84.57
76448;BME280;65284;51.040;13.722;2024-01-15T02:55:26;97874.28;;;0.54;84.44
76448;BME280;65284;51.040;13.722;2024-01-15T02:57:55;97878.47;;;0.47;84.33
76448;BME280;65284;51.040;13.722;2024-01-15T03:00:22;97878.16;;;0.50;84.10
76448;BME280;65284;51.040;13.722;2024-01-15T03:02:50;97891.22;;;0.50;84.29
76448;BME280;65284;51.040;13.722;2024-01-15T03:05:17;97872.28;;;0.48;84.74
76448;BME280;65284;51.040;13.722;2024-01-15T03:07:44;97875.53;;;0.50;84.29
76448;BME280;65284;51.040;13.722;2024-01-15T03:10:10;97865.09;;;0.50;83.80
76448;BME280;65284;51.040;13.722;2024-01-15T03:12:37;97886.28;;;0.47;84.05
76448;BME280;65284;51.040;13.722;2024-01-15T03:15:03;97868.38;;;0.52;83.94
76448;BME280;65284;51.040;13.722;2024-01-15T03:17:30;97861.84;;;0.48;83.65
76448;BME280;65284;51.040;13.722;2024-01-15T03:19:56;97875.03;;;0.46;83.98
76448;BME280;65284;51.040;13.722;2024-01-15T03:22:23;97874.50;;;0.42;84.37
76448;BME280;65284;51.040;13.722;2024-01-15T03:24:50;97875.03;;;0.46;83.22
76448;BME280;65284;51.040;13.722;2024-01-15T03:27:16;97861.47;;;0.42;83.45
76448;BME280;65284;51.040;13.722;2024-01-15T03:29:43;97866.28;;;0.37;83.66
76448;BME280;65284;51.040;13.722;2024-01-15T03:32:09;97870.19;;;0.33;83.83
76448;BME280;65284;51.040;13.722;2024-01-15T03:34:36;97856.84;;;0.36;83.48
76448;BME280;65284;51.040;13.722;2024-01-15T03:37:02;97857.78;;;0.35;83.27
76448;BME280;65284;51.040;13.722;2024-01-15T03:39:29;97877.84;;;0.35;83.14
76448;BME280;65284;51.040;13.722;2024-01-15T03:41:56;97881.28;;;0.35;83.51
76448;BME280;65284;51.040;13.722;2024-01-15T03:44:23;97902.94;;;0.28;83.88
76448;BME280;65284;51.040;13.722;2024-01-15T03:46:50;97882.19;;;0.26;84.07
76448;BME280;65284;51.040;13.722;2024-01-15T03:49:16;97862.28;;;0.25;83.93
76448;BME280;65284;51.040;13.722;2024-01-15T03:51:43;97935.19;;;0.27;84.23
76448;BME280;65284;51.040;13.722;2024-01-15T03:54:09;97874.81;;;0.21;84.80
76448;BME280;65284;51.040;13.722;2024-01-15T03:56:36;97892.91;;;0.23;84.79
76448;BME280;65284;51.040;13.722;2024-01-15T03:59:02;97878.00;;;0.15;85.86
76448;BME280;65284;51.040;13.722;2024-01-15T04:01:29;97900.00;;;0.13;86.79
76448;BME280;65284;51.040;13.722;2024-01-15T04:03:55;97888.50;;;0.06;87.18
76448;BME280;65284;51.040;13.722;2024-01-15T04:06:22;97903.50;;;0.04;86.71
76448;BME280;65284;51.040;13.722;2024-01-15T04:08:49;97888.13;;;0.01;87.14
76448;BME280;65284;51.040;13.722;2024-01-15T04:11:15;97883.84;;;-0.01;87.12
76448;BME280;65284;51.040;13.722;2024-01-15T04:13:42;97889.16;;;0.08;86.54
76448;BME280;65284;51.040;13.722;2024-01-15T04:16:08;97883.56;;;0.03;87.08
76448;BME280;65284;51.040;13.722;2024-01-15T04:18:35;97870.69;;;0.01;87.28
76448;BME280;65284;51.040;13.722;2024-01-15T04:21:04;97870.97;;;-0.02;87.54
76448;BME280;65284;51.040;13.722;2024-01-15T04:23:31;97890.47;;;-0.06;86.92
76448;BME280;65284;51.040;13.722;2024-01-15T04:25:58;97867.16;;;-0.08;86.64
76448;BME280;65284;51.040;13.722;2024-01-15T04:28:24;97877.31;;;-0.05;86.83
76448;BME280;65284;51.040;13.722;2024-01-15T04:30:50;97860.00;;;-0.06;86.12
76448;BME280;65284;51.040;13.722;2024-01-15T04:33:17;97850.53;;;-0.07;85.88
76448;BME280;65284;51.040;13.722;2024-01-15T04:35:44;97886.94;;;-0.05;85.58
76448;BME280;65284;51.040;13.722;2024-01-15T04:38:10;97886.63;;;-0.02;85.60
76448;BME280;65284;51.040;13.722;2024-01-15T04:40:36;97887.44;;;-0.02;84.75
76448;BME280;65284;51.040;13.722;2024-01-15T04:43:03;97866.56;;;-0.02;84.64
76448;BME280;65284;51.040;13.722;2024-01-15T04:45:29;97884.16;;;-0.04;84.47
76448;BME280;65284;51.040;13.722;2024-01-15T04:47:56;97867.84;;;-0.06;84.41
76448;BME280;65284;51.040;13.722;2024-01-15T04:50:24;97867.47;;;-0.11;84.38
76448;BME280;65284;51.040;13.722;2024-01-15T04:52:50;97874.75;;;-0.14;85.12
76448;BME280;65284;51.040;13.722;2024-01-15T04:55:17;97886.97;;;-0.15;84.45
76448;BME280;65284;51.040;13.722;2024-01-15T04:57:43;97889.19;;;-0.20;84.21
76448;BME280;65284;51.040;13.722;2024-01-15T05:00:11;97875.47;;;-0.22;84.58
76448;BME280;65284;51.040;13.722;2024-01-15T05:02:38;97896.34;;;-0.22;84.43
76448;BME280;65284;51.040;13.722;2024-01-15T05:05:05;97873.84;;;-0.23;84.65
76448;BME280;65284;51.040;13.722;2024-01-15T05:07:31;97872.47;;;-0.27;84.32
76448;BME280;65284;51.040;13.722;2024-01-15T05:09:58;97879.34;;;-0.26;84.31
76448;BME280;65284;51.040;13.722;2024-01-15T05:12:24;97874.44;;;-0.29;84.58
76448;BME280;65284;51.040;13.722;2024-01-15T05:14:51;97878.94;;;-0.31;85.09
76448;BME280;65284;51.040;13.722;2024-01-15T05:17:17;97871.25;;;-0.33;85.58
76448;BME280;65284;51.040;13.722;2024-01-15T05:19:44;97926.19;;;-0.34;85.34
76448;BME280;65284;51.040;13.722;2024-01-15T05:22:11;97900.78;;;-0.32;85.42
76448;BME280;65284;51.040;13.722;2024-01-15T05:24:37;97882.53;;;-0.32;85.73
76448;BME280;65284;51.040;13.722;2024-01-15T05:27:04;97899.81;;;-0.31;85.20
76448;BME280;65284;51.040;13.722;2024-01-15T05:29:30;97913.69;;;-0.31;84.74
76448;BME280;65284;51.040;13.722;2024-01-15T05:31:57;97923.00;;;-0.28;84.83
76448;BME280;65284;51.040;13.722;2024-01-15T05:34:27;97877.97;;;-0.30;84.72
76448;BME280;65284;51.040;13.722;2024-01-15T05:36:54;97875.00;;;-0.35;84.73
76448;BME280;65284;51.040;13.722;2024-01-15T05:39:20;97879.94;;;-0.32;84.60
76448;BME280;65284;51.040;13.722;2024-01-15T05:41:49;97899.13;;;-0.33;83.90
76448;BME280;65284;51.040;13.722;2024-01-15T05:44:16;97879.94;;;-0.32;84.31
76448;BME280;65284;51.040;13.722;2024-01-15T05:46:42;97870.31;;;-0.32;84.18
76448;BME280;65284;51.040;13.722;2024-01-15T05:49:09;97904.06;;;-0.30;83.82
76448;BME280;65284;51.040;13.722;2024-01-15T05:51:35;97893.91;;;-0.33;84.03
76448;BME280;65284;51.040;13.722;2024-01-15T05:54:02;97891.72;;;-0.28;83.48
76448;BME280;65284;51.040;13.722;2024-01-15T05:56:28;97884.31;;;-0.33;83.25
76448;BME280;65284;51.040;13.722;2024-01-15T05:58:55;97919.72;;;-0.30;83.31
76448;BME280;65284;51.040;13.722;2024-01-15T06:01:21;97902.44;;;-0.31;83.30
76448;BME280;65284;51.040;13.722;2024-01-15T06:03:48;97897.34;;;-0.33;83.40
76448;BME280;65284;51.040;13.722;2024-01-15T06:06:15;97877.16;;;-0.31;83.13
76448;BME280;65284;51.040;13.722;2024-01-15T06:08:41;97867.25;;;-0.27;82.45
76448;BME280;65284;51.040;13.722;2024-01-15T06:11:07;97874.13;;;-0.26;82.43
76448;BME280;65284;51.040;13.722;2024-01-15T06:13:34;97883.75;;;-0.27;82.12
76448;BME280;65284;51.040;13.722;2024-01-15T06:16:00;97869.97;;;-0.19;81.80
76448;BME280;65284;51.040;13.722;2024-01-15T06:18:27;97865.03;;;-0.22;81.92
76448;BME280;65284;51.040;13.722;2024-01-15T06:20:54;97871.59;;;-0.18;81.58
76448;BME280;65284;51.040;13.722;2024-01-15T06:23:20;97868.03;;;-0.17;81.68
76448;BME280;65284;51.040;13.722;2024-01-15T06:25:47;97854.31;;;-0.19;81.26
76448;BME280;65284;51.040;13.722;2024-01-15T06:28:13;97869.84;;;-0.17;80.91
76448;BME280;65284;51.040;13.722;2024-01-15T06:30:40;97855.94;;;-0.18;80.63
76448;BME280;65284;51.040;13.722;2024-01-15T06:33:06;97862.53;;;-0.14;80.68
76448;BME280;65284;51.040;13.722;2024-01-15T06:35:33;97855.13;;;-0.18;80.83
76448;BME280;65284;51.040;13.722;2024-01-15T06:38:00;97861.84;;;-0.16;80.79
76448;BME280;65284;51.040;13.722;2024-01-15T06:40:27;97859.91;;;-0.14;80.92
76448;BME280;65284;51.040;13.722;2024-01-15T06:42:53;97846.88;;;-0.14;80.59
76448;BME280;65284;51.040;13.722;2024-01-15T06:45:20;97869.00;;;-0.18;80.73
76448;BME280;65284;51.040;13.722;2024-01-15T06:47:46;97866.94;;;-0.14;80.62
76448;BME280;65284;51.040;13.722;2024-01-15T06:50:13;97869.66;;;-0.16;80.35
76448;BME280;65284;51.040;13.722;2024-01-15T06:52:39;97876.25;;;-0.12;80.28
76448;BME280;65284;51.040;13.722;2024-01-15T06:55:06;97872.97;;;-0.14;79.98
76448;BME280;65284;51.040;13.722;2024-01-15T06:57:32;97872.66;;;-0.11;80.27
76448;BME280;65284;51.040;13.722;2024-01-15T06:59:59;97844.28;;;-0.14;80.35
76448;BME280;65284;51.040;13.722;2024-01-15T07:02:25;97858.72;;;-0.19;80.35
76448;BME280;65284;51.040;13.722;2024-01-15T07:04:53;97860.88;;;-0.15;80.22
76448;BME280;65284;51.040;13.722;2024-01-15T07:07:19;97877.09;;;-0.21;80.13
76448;BME280;65284;51.040;13.722;2024-01-15T07:09:46;97862.88;;;-0.27;80.45
76448;BME280;65284;51.040;13.722;2024-01-15T07:12:12;97854.03;;;-0.16;80.15
76448;BME280;65284;51.040;13.722;2024-01-15T07:14:39;97861.75;;;-0.24;79.97
76448;BME280;65284;51.040;13.722;2024-01-15T07:17:05;97854.31;;;-0.19;79.96
76448;BME280;65284;51.040;13.722;2024-01-15T07:19:32;97871.59;;;-0.18;79.83
76448;BME280;65284;51.040;13.722;2024-01-15T07:21:59;97865.44;;;-0.17;79.54
76448;BME280;65284;51.040;13.722;2024-01-15T07:24:26;97900.97;;;-0.16;79.49
76448;BME280;65284;51.040;13.722;2024-01-15T07:26:53;97877.78;;;-0.19;79.80
76448;BME280;65284;51.040;13.722;2024-01-15T07:29:19;97898.81;;;-0.20;79.46
76448;BME280;65284;51.040;13.722;2024-01-15T07:31:52;97869.28;;;-0.21;79.13
76448;BME280;65284;51.040;13.722;2024-01-15T07:34:19;97897.16;;;-0.21;80.17
76448;BME280;65284;51.040;13.722;2024-01-15T07:36:46;97890.16;;;-0.21;80.77
76448;BME280;65284;51.040;13.722;2024-01-15T07:39:13;97917.91;;;-0.20;80.71
76448;BME280;65284;51.040;13.722;2024-01-15T07:41:40;97924.06;;;-0.21;80.67
76448;BME280;65284;51.040;13.722;2024-01-15T07:44:06;97926.25;;;-0.16;80.62
76448;BME280;65284;51.040;13.722;2024-01-15T07:46:33;97904.97;;;-0.21;80.75
76448;BME280;65284;51.040;13.722;2024-01-15T07:48:59;97908.03;;;-0.26;80.74
76448;BME280;65284;51.040;13.722;2024-01-15T07:51:26;97928.47;;;-0.21;80.82
76448;BME280;65284;51.040;13.722;2024-01-15T07:53:53;97866.97;;;-0.24;80.53
76448;BME280;65284;51.040;13.722;2024-01-15T07:56:20;97883.47;;;-0.24;80.59
76448;BME280;65284;51.040;13.722;2024-01-15T07:58:47;97880.69;;;-0.22;80.26
76448;BME280;65284;51.040;13.722;2024-01-15T08:01:14;97890.69;;;-0.17;79.93
76448;BME280;65284;51.040;13.722;2024-01-15T08:03:41;97888.50;;;-0.22;80.08
76448;BME280;65284;51.040;13.722;2024-01-15T08:06:08;97879.28;;;-0.16;79.73
76448;BME280;65284;51.040;13.722;2024-01-15T08:08:37;97878.78;;;-0.20;80.14
76448;BME280;65284;51.040;13.722;2024-01-15T08:11:03;97891.13;;;-0.22;80.15
76448;BME280;65284;51.040;13.722;2024-01-15T08:13:30;97892.75;;;-0.21;79.89
76448;BME280;65284;51.040;13.722;2024-01-15T08:15:57;97895.22;;;-0.19;79.70
76448;BME280;65284;51.040;13.722;2024-01-15T08:18:23;97880.41;;;-0.19;79.38
76448;BME280;65284;51.040;13.722;2024-01-15T08:20:50;97897.69;;;-0.18;79.55
76448;BME280;65284;51.040;13.722;2024-01-15T08:23:17;97886.19;;;-0.25;79.76
76448;BME280;65284;51.040;13.722;2024-01-15T08:25:44;97889.63;;;-0.25;79.79
76448;BME280;65284;51.040;13.722;2024-01-15T08:28:11;97873.84;;;-0.23;79.87
76448;BME280;65284;51.040;13.722;2024-01-15T08:30:37;97889.78;;;-0.26;79.85
76448;BME280;65284;51.040;13.722;2024-01-15T08:33:04;97896.63;;;-0.25;79.77
76448;BME280;65284;51.040;13.722;2024-01-15T08:35:43;97885.22;;;-0.24;79.83
76448;BME280;65284;51.040;13.722;2024-01-15T08:38:10;97885.09;;;-0.22;79.61
76448;BME280;65284;51.040;13.722;2024-01-15T08:40:36;97901.28;;;-0.19;79.71
76448;BME280;65284;51.040;13.722;2024-01-15T08:43:03;97902.91;;;-0.18;79.40
76448;BME280;65284;51.040;13.722;2024-01-15T08:45:29;97899.75;;;-0.12;79.13
76448;BME280;65284;51.040;13.722;2024-01-15T08:47:57;97929.09;;;-0.10;78.55
76448;BME280;65284;51.040;13.722;2024-01-15T08:50:33;97889.53;;;-0.05;78.36
76448;BME280;65284;51.040;13.722;2024-01-15T08:53:01;97899.69;;;-0.02;78.09
76448;BME280;65284;51.040;13.722;2024-01-15T08:55:27;97926.28;;;0.02;78.15
76448;BME280;65284;51.040;13.722;2024-01-15T08:57:54;97903.09;;;-0.02;78.27
76448;BME280;65284;51.040;13.722;2024-01-15T09:00:20;97887.16;;;0.02;77.75
76448;BME280;65284;51.040;13.722;2024-01-15T09:02:47;97909.00;;;0.01;77.71
76448;BME280;65284;51.040;13.722;2024-01-15T09:05:13;97885.22;;;0.04;77.72
76448;BME280;65284;51.040;13.722;2024-01-15T09:07:40;97925.03;;;0.06;77.27
76448;BME280;65284;51.040;13.722;2024-01-15T09:10:07;97912.38;;;0.11;77.41
76448;BME280;65284;51.040;13.722;2024-01-15T09:12:33;97919.22;;;0.12;77.15
76448;BME280;65284;51.040;13.722;2024-01-15T09:15:00;97906.84;;;0.14;77.19
76448;BME280;65284;51.040;13.722;2024-01-15T09:17:26;97909.84;;;0.19;76.89
76448;BME280;65284;51.040;13.722;2024-01-15T09:19:54;97970.00;;;0.27;76.43
76448;BME280;65284;51.040;13.722;2024-01-15T09:22:21;97937.78;;;0.36;75.72
76448;BME280;65284;51.040;13.722;2024-01-15T09:24:47;97911.66;;;0.36;76.17
76448;BME280;65284;51.040;13.722;2024-01-15T09:27:14;97941.34;;;0.35;76.01
76448;BME280;65284;51.040;13.722;2024-01-15T09:29:41;97891.44;;;0.38;75.80
76448;BME280;65284;51.040;13.722;2024-01-15T09:32:09;97925.09;;;0.41;75.78
76448;BME280;65284;51.040;13.722;2024-01-15T09:34:35;97933.59;;;0.43;74.79
76448;BME280;65284;51.040;13.722;2024-01-15T09:37:02;97943.09;;;0.44;74.82
76448;BME280;65284;51.040;13.722;2024-01-15T09:39:31;97947.03;;;0.49;74.55
76448;BME280;65284;51.040;13.722;2024-01-15T09:41:58;97923.06;;;0.53;74.63
76448;BME280;65284;51.040;13.722;2024-01-15T09:44:25;97932.03;;;0.51;74.63
76448;BME280;65284;51.040;13.722;2024-01-15T09:46:53;97915.91;;;0.55;74.55
76448;BME280;65284;51.040;13.722;2024-01-15T09:49:19;97908.25;;;0.54;74.16
76448;BME280;65284;51.040;13.722;2024-01-15T09:51:47;97925.53;;;0.55;74.26
76448;BME280;65284;51.040;13.722;2024-01-15T09:54:28;97906.28;;;0.56;74.13
76448;BME280;65284;51.040;13.722;2024-01-15T09:56:55;97921.59;;;0.68;74.27
76448;BME280;65284;51.040;13.722;2024-01-15T09:59:22;97896.28;;;0.69;73.75
76448;BME280;65284;51.040;13.722;2024-01-15T10:01:50;97895.31;;;0.70;73.34
76448;BME280;65284;51.040;13.722;2024-01-15T10:04:16;97913.81;;;0.77;73.18
76448;BME280;65284;51.040;13.722;2024-01-15T10:06:45;97925.16;;;0.67;73.43
76448;BME280;65284;51.040;13.722;2024-01-15T10:09:12;97907.03;;;0.66;73.40
76448;BME280;65284;51.040;13.722;2024-01-15T10:11:41;97897.84;;;0.62;72.91
76448;BME280;65284;51.040;13.722;2024-01-15T10:14:09;97886.75;;;0.60;73.25
76448;BME280;65284;51.040;13.722;2024-01-15T10:16:41;97906.97;;;0.58;73.38
76448;BME280;65284;51.040;13.722;2024-01-15T10:19:08;97898.81;;;0.61;73.62
76448;BME280;65284;51.040;13.722;2024-01-15T10:21:35;97875.69;;;0.66;73.76
76448;BME280;65284;51.040;13.722;2024-01-15T10:24:03;97895.31;;;0.70;73.33
76448;BME280;65284;51.040;13.722;2024-01-15T10:26:31;97882.31;;;0.78;73.16
76448;BME280;65284;51.040;13.722;2024-01-15T10:29:00;97906.50;;;0.80;72.81
76448;BME280;65284;51.040;13.722;2024-01-15T10:31:27;97889.19;;;0.79;73.00
76448;BME280;65284;51.040;13.722;2024-01-15T10:34:10;97889.03;;;0.81;72.79
76448;BME280;65284;51.040;13.722;2024-01-15T10:36:39;97883.50;;;0.84;72.93
76448;BME280;65284;51.040;13.722;2024-01-15T10:39:06;97902.19;;;0.89;72.44
76448;BME280;65284;51.040;13.722;2024-01-15T10:41:33;97897.47;;;0.93;72.40
76448;BME280;65284;51.040;13.722;2024-01-15T10:44:00;97935.00;;;0.91;72.75
76448;BME280;65284;51.040;13.722;2024-01-15T10:46:27;97903.34;;;0.95;72.07
76448;BME280;65284;51.040;13.722;2024-01-15T10:48:54;97896.47;;;0.94;72.65
76448;BME280;65284;51.040;13.722;2024-01-15T10:51:21;97885.66;;;0.88;72.70
76448;BME280;65284;51.040;13.722;2024-01-15T10:53:48;97870.97;;;0.87;72.28
76448;BME280;65284;51.040;13.722;2024-01-15T10:56:14;97882.09;;;0.89;72.48
76448;BME280;65284;51.040;13.722;2024-01-15T10:58:42;97880.72;;;0.85;72.41
76448;BME280;65284;51.040;13.722;2024-01-15T11:01:09;97876.34;;;0.86;72.38
76448;BME280;65284;51.040;13.722;2024-01-15T11:03:36;97897.38;;;0.84;72.28
76448;BME280;65284;51.040;13.722;2024-01-15T11:06:03;97880.13;;;0.91;72.04
76448;BME280;65284;51.040;13.722;2024-01-15T11:08:30;97851.75;;;0.97;71.94
76448;BME280;65284;51.040;13.722;2024-01-15T11:10:57;97892.75;;;0.96;71.78
76448;BME280;65284;51.040;13.722;2024-01-15T11:16:03;97911.13;;;0.86;71.98
76448;BME280;65284;51.040;13.722;2024-01-15T11:18:35;97852.34;;;0.90;71.84
76448;BME280;65284;51.040;13.722;2024-01-15T11:23:47;97891.41;;;0.92;72.27
76448;BME280;65284;51.040;13.722;2024-01-15T11:29:09;97866.84;;;0.85;72.23
76448;BME280;65284;51.040;13.722;2024-01-15T11:34:03;97880.28;;;0.90;72.29
76448;BME280;65284;51.040;13.722;2024-01-15T11:41:55;97875.25;;;0.97;72.19
76448;BME280;65284;51.040;13.722;2024-01-15T11:44:22;97862.94;;;1.07;71.92
76448;BME280;65284;51.040;13.722;2024-01-15T11:46:57;97848.56;;;1.11;71.69
76448;BME280;65284;51.040;13.722;2024-01-15T11:52:11;97862.50;;;1.20;71.49
76448;BME280;65284;51.040;13.722;2024-01-15T11:54:38;97859.72;;;1.21;71.40
76448;BME280;65284;51.040;13.722;2024-01-15T11:57:10;97867.53;;;1.13;71.25
76448;BME280;65284;51.040;13.722;2024-01-15T11:59:42;97858.91;;;1.21;71.12
76448;BME280;65284;51.040;13.722;2024-01-15T12:02:09;97866.25;;;1.17;71.31
76448;BME280;65284;51.040;13.722;2024-01-15T12:04:37;97844.66;;;1.15;71.19
76448;BME280;65284;51.040;13.722;2024-01-15T12:07:05;97840.28;;;1.16;71.29
76448;BME280;65284;51.040;13.722;2024-01-15T12:09:32;97858.91;;;1.21;71.48
76448;BME280;65284;51.040;13.722;2024-01-15T12:12:05;97863.31;;;1.20;71.71
76448;BME280;65284;51.040;13.722;2024-01-15T12:14:33;97860.56;;;1.22;72.20
76448;BME280;65284;51.040;13.722;2024-01-15T12:17:02;97851.25;;;1.19;73.07
76448;BME280;65284;51.040;13.722;2024-01-15T12:19:31;97858.09;;;1.20;73.34
76448;BME280;65284;51.040;13.722;2024-01-15T12:21:58;97864.56;;;1.08;74.01
76448;BME280;65284;51.040;13.722;2024-01-15T12:24:24;97860.66;;;1.12;74.02
76448;BME280;65284;51.040;13.722;2024-01-15T12:26:51;97860.75;;;1.02;74.91
76448;BME280;65284;51.040;13.722;2024-01-15T12:29:18;97858.00;;;1.04;74.91
76448;BME280;65284;51.040;13.722;2024-01-15T12:31:48;97858.97;;;1.03;75.33
76448;BME280;65284;51.040;13.722;2024-01-15T12:34:14;97856.22;;;1.04;75.41
76448;BME280;65284;51.040;13.722;2024-01-15T12:36:41;97839.56;;;1.05;75.79
76448;BME280;65284;51.040;13.722;2024-01-15T12:39:11;97844.47;;;1.08;76.20
76448;BME280;65284;51.040;13.722;2024-01-15T12:41:39;97846.88;;;1.02;76.76
76448;BME280;65284;51.040;13.722;2024-01-15T12:44:05;97868.41;;;0.96;77.45
76448;BME280;65284;51.040;13.722;2024-01-15T12:46:32;97848.44;;;0.95;78.06
76448;BME280;65284;51.040;13.722;2024-01-15T12:48:58;97853.03;;;0.93;79.13
76448;BME280;65284;51.040;13.722;2024-01-15T12:51:25;97868.50;;;0.86;79.72
76448;BME280;65284;51.040;13.722;2024-01-15T12:53:53;97849.06;;;0.88;80.27
76448;BME280;65284;51.040;13.722;2024-01-15T12:56:19;97847.25;;;0.81;80.99
76448;BME280;65284;51.040;13.722;2024-01-15T12:58:46;97856.50;;;0.75;81.59
76448;BME280;65284;51.040;13.722;2024-01-15T13:01:13;97848.97;;;0.72;82.08
76448;BME280;65284;51.040;13.722;2024-01-15T13:03:40;97837.69;;;0.72;82.30
76448;BME280;65284;51.040;13.722;2024-01-15T13:06:07;97855.19;;;0.71;82.66
76448;BME280;65284;51.040;13.722;2024-01-15T13:08:33;97859.13;;;0.75;82.83
76448;BME280;65284;51.040;13.722;2024-01-15T13:11:00;97854.81;;;0.66;83.13
76448;BME280;65284;51.040;13.722;2024-01-15T13:13:27;97862.16;;;0.71;83.35
76448;BME280;65284;51.040;13.722;2024-01-15T13:15:53;97860.31;;;0.63;83.09